createdAt,value
2023-11-07T00:00:42.630Z,100159.88
2023-11-07T00:01:48.145Z,100152.77
2023-11-07T00:02:53.737Z,100161.7
2023-11-07T00:03:59.807Z,100156.02
2023-11-07T00:05:05.705Z,100148.31
2023-11-07T00:06:11.345Z,100159.88
2023-11-07T00:07:16.865Z,100154.34
2023-11-07T00:08:22.393Z,100163.39
2023-11-07T00:09:27.894Z,100156.28
2023-11-07T00:10:33.345Z,100161.42
2023-11-07T00:11:38.976Z,100157.22
2023-11-07T00:12:44.511Z,100158.07
2023-11-07T00:13:50.011Z,100164.25
2023-11-07T00:14:55.611Z,100163.32
2023-11-07T00:16:01.132Z,100162.16
2023-11-07T00:17:06.681Z,100167.78
2023-11-07T00:18:12.389Z,100163.92
2023-11-07T00:19:18.204Z,100168.12
2023-11-07T00:20:23.825Z,100170.2
2023-11-07T00:21:29.309Z,100160.83
2023-11-07T00:22:34.785Z,100167.68
2023-11-07T00:23:40.635Z,100160.16
2023-11-07T00:24:46.212Z,100163.43
2023-11-07T00:25:51.682Z,100164
2023-11-07T00:26:57.336Z,100173.97
2023-11-07T00:28:02.904Z,100174.61
2023-11-07T00:29:08.376Z,100164.26
2023-11-07T00:30:13.920Z,100157.61
2023-11-07T00:31:19.422Z,100157.72
2023-11-07T00:32:24.973Z,100166.45
2023-11-07T00:33:30.746Z,100165.23
2023-11-07T00:34:36.830Z,100172.86
2023-11-07T00:35:44.859Z,100171.93
2023-11-07T00:36:50.559Z,100167.17
2023-11-07T00:37:56.038Z,100169.77
2023-11-07T00:39:01.608Z,100174.48
2023-11-07T00:40:07.277Z,100169.02
2023-11-07T00:41:12.851Z,100175.53
2023-11-07T00:42:18.385Z,100174.2
2023-11-07T00:43:24.011Z,100173.79
2023-11-07T00:44:29.565Z,100180.04
2023-11-07T00:45:35.061Z,100172.52
2023-11-07T00:46:40.558Z,100167.17
2023-11-07T00:47:46.455Z,100169.84
2023-11-07T00:48:52.583Z,100170.78
2023-11-07T00:49:58.349Z,100167.58
2023-11-07T00:51:03.951Z,100179.63
2023-11-07T00:52:09.610Z,100168.58
2023-11-07T00:53:15.106Z,100177.81
2023-11-07T00:54:20.633Z,100175.95
2023-11-07T00:55:26.153Z,100175.47
2023-11-07T00:56:31.662Z,100171.94
2023-11-07T00:57:37.336Z,100172.34
2023-11-07T00:58:42.768Z,100174.95
2023-11-07T00:59:48.415Z,100174.02
2023-11-07T01:00:54.032Z,100173.69
2023-11-07T01:01:59.533Z,100178.55
2023-11-07T01:03:05.350Z,100172.68
2023-11-07T01:04:11.625Z,100178.03
2023-11-07T01:05:17.718Z,100175.8
2023-11-07T01:06:23.937Z,100179.37
2023-11-07T01:07:29.562Z,100182.16
2023-11-07T01:08:35.238Z,100171.45
2023-11-07T01:09:40.784Z,100180.38
2023-11-07T01:10:46.303Z,100183.91
2023-11-07T01:11:52.970Z,100184.5
2023-11-07T01:12:58.533Z,100188.08
2023-11-07T01:14:04.458Z,100191.43
2023-11-07T01:15:10.034Z,100184.84
2023-11-07T01:16:15.636Z,100189.6
2023-11-07T01:17:21.176Z,100186.52
2023-11-07T01:18:27.538Z,100184.1
2023-11-07T01:19:33.367Z,100184.59
2023-11-07T01:20:38.915Z,100186
2023-11-07T01:21:44.551Z,100192.36
2023-11-07T01:22:50.080Z,100187.19
2023-11-07T01:23:56.701Z,100195.04
2023-11-07T01:25:02.270Z,100190.13
2023-11-07T01:26:07.772Z,100190.28
2023-11-07T01:27:13.335Z,100196.22
2023-11-07T01:28:18.911Z,100200.66
2023-11-07T01:29:24.412Z,100201.84
2023-11-07T01:30:29.908Z,100198.72
2023-11-07T01:31:35.406Z,100200.39
2023-11-07T01:32:41.169Z,100198.31
2023-11-07T01:33:47.154Z,100198.91
2023-11-07T01:34:52.862Z,100198.91
2023-11-07T01:35:58.553Z,100196.3
2023-11-07T01:37:04.101Z,100197.83
2023-11-07T01:38:09.618Z,100206.19
2023-11-07T01:39:15.145Z,100198.23
2023-11-07T01:40:20.751Z,100199.91
2023-11-07T01:41:26.323Z,100199.84
2023-11-07T01:42:31.871Z,100200.84
2023-11-07T01:43:37.382Z,100212.78
2023-11-07T01:44:42.901Z,100206.86
2023-11-07T01:45:48.442Z,100214.23
2023-11-07T01:46:53.959Z,100207.09
2023-11-07T01:47:59.609Z,100205.94
2023-11-07T01:49:06.329Z,100210.55
2023-11-07T01:50:11.902Z,100214.05
2023-11-07T01:51:17.440Z,100215.91
2023-11-07T01:52:22.939Z,100216.39
2023-11-07T01:53:28.483Z,100220.48
2023-11-07T01:54:34.000Z,100214.38
2023-11-07T01:55:39.480Z,100219.81
2023-11-07T01:56:45.053Z,100215.38
2023-11-07T01:57:50.616Z,100210.1
2023-11-07T01:58:56.111Z,100217.8
2023-11-07T02:00:01.730Z,100216.8
2023-11-07T02:01:07.375Z,100212.3
2023-11-07T02:02:12.913Z,100224.01
2023-11-07T02:03:18.781Z,100216.91
2023-11-07T02:04:24.756Z,100215.98
2023-11-07T02:05:30.628Z,100211.89
2023-11-07T02:06:36.386Z,100210.36
2023-11-07T02:07:41.900Z,100216.05
2023-11-07T02:08:47.453Z,100216.57
2023-11-07T02:09:53.077Z,100216.23
2023-11-07T02:10:58.505Z,100221.48
2023-11-07T02:12:04.079Z,100226.77
2023-11-07T02:13:10.732Z,100215.31
2023-11-07T02:14:16.317Z,100223.67
2023-11-07T02:15:21.986Z,100219.4
2023-11-07T02:16:27.490Z,100222.82
2023-11-07T02:17:33.179Z,100217.98
2023-11-07T02:18:39.001Z,100223.41
2023-11-07T02:19:44.752Z,100225.61
2023-11-07T02:20:50.338Z,100232.7
2023-11-07T02:21:55.911Z,100227.77
2023-11-07T02:23:01.409Z,100223.93
2023-11-07T02:24:07.028Z,100229.18
2023-11-07T02:25:12.650Z,100233.53
2023-11-07T02:26:18.112Z,100234.97
2023-11-07T02:27:23.608Z,100235.8
2023-11-07T02:28:29.139Z,100239.48
2023-11-07T02:29:34.671Z,100235.05
2023-11-07T02:30:40.322Z,100238.99
2023-11-07T02:31:45.836Z,100240
2023-11-07T02:32:51.674Z,100235.88
2023-11-07T02:33:57.704Z,100241
2023-11-07T02:35:03.485Z,100239.81
2023-11-07T02:36:09.089Z,100241.74
2023-11-07T02:37:14.715Z,100238.81
2023-11-07T02:38:20.210Z,100235.88
2023-11-07T02:39:25.722Z,100241.89
2023-11-07T02:40:31.284Z,100242.23
2023-11-07T02:41:36.830Z,100227.02
2023-11-07T02:42:42.343Z,100245.35
2023-11-07T02:43:47.887Z,100242.34
2023-11-07T02:44:53.505Z,100248.59
2023-11-07T02:45:59.053Z,100241.08
2023-11-07T02:47:04.555Z,100245.5
2023-11-07T02:48:10.216Z,100243.42
2023-11-07T02:49:16.127Z,100251.04
2023-11-07T02:50:21.886Z,100246.91
2023-11-07T02:51:27.360Z,100249.03
2023-11-07T02:52:32.820Z,100250.19
2023-11-07T02:53:38.433Z,100259.73
2023-11-07T02:54:44.150Z,100252.27
2023-11-07T02:55:49.728Z,100263.98
2023-11-07T02:56:55.405Z,100257.4
2023-11-07T02:58:00.925Z,100261.23
2023-11-07T02:59:06.454Z,100253.53
2023-11-07T03:00:12.065Z,100260.3
2023-11-07T03:01:17.729Z,100262.57
2023-11-07T03:02:23.235Z,100257.14
2023-11-07T03:03:28.931Z,100257.55
2023-11-07T03:04:34.671Z,100259.48
2023-11-07T03:05:40.445Z,100260.97
2023-11-07T03:06:46.260Z,100261.91
2023-11-07T03:07:51.918Z,100262.75
2023-11-07T03:08:57.443Z,100268.11
2023-11-07T03:10:03.056Z,100265.43
2023-11-07T03:11:08.853Z,100259.22
2023-11-07T03:12:14.366Z,100259.3
2023-11-07T03:13:19.855Z,100262.42
2023-11-07T03:14:25.405Z,100263.83
2023-11-07T03:15:30.924Z,100262.98
2023-11-07T03:16:36.427Z,100268.77
2023-11-07T03:17:42.076Z,100266.51
2023-11-07T03:18:47.933Z,100262.91
2023-11-07T03:19:53.723Z,100262.57
2023-11-07T03:20:59.277Z,100275.13
2023-11-07T03:22:05.101Z,100265.66
2023-11-07T03:23:10.741Z,100268.67
2023-11-07T03:24:16.267Z,100277.63
2023-11-07T03:25:21.767Z,100279.82
2023-11-07T03:26:27.285Z,100277.14
2023-11-07T03:27:32.792Z,100286
2023-11-07T03:28:38.280Z,100277.7
2023-11-07T03:29:43.838Z,100280.9
2023-11-07T03:30:49.355Z,100283.06
2023-11-07T03:31:55.015Z,100288.41
2023-11-07T03:33:00.935Z,100293.28
2023-11-07T03:34:06.808Z,100292.53
2023-11-07T03:35:12.513Z,100289.86
2023-11-07T03:36:18.033Z,100297.03
2023-11-07T03:37:23.595Z,100293.95
2023-11-07T03:38:29.099Z,100298.37
2023-11-07T03:39:36.840Z,100299.71
2023-11-07T03:40:42.324Z,100294.44
2023-11-07T03:41:47.991Z,100300.56
2023-11-07T03:42:53.490Z,100301.46
2023-11-07T03:43:58.993Z,100301.46
2023-11-07T03:45:04.663Z,100308.34
2023-11-07T03:46:10.284Z,100306.73
2023-11-07T03:47:15.759Z,100309.75
2023-11-07T03:48:21.488Z,100299.56
2023-11-07T03:49:27.305Z,100304.66
2023-11-07T03:50:33.013Z,100308.08
2023-11-07T03:51:38.685Z,100301.38
2023-11-07T03:52:44.199Z,100309.41
2023-11-07T03:53:49.761Z,100311.75
2023-11-07T03:54:55.342Z,100304.98
2023-11-07T03:56:00.913Z,100313.02
2023-11-07T03:57:06.602Z,100318.71
2023-11-07T03:58:12.293Z,100311.61
2023-11-07T03:59:17.808Z,100320.98
2023-11-07T04:00:23.342Z,100317.86
2023-11-07T04:01:28.846Z,100318.37
2023-11-07T04:02:34.729Z,100316.52
2023-11-07T04:03:40.543Z,100315.95
2023-11-07T04:04:46.225Z,100309.67
2023-11-07T04:05:52.109Z,100317.77
2023-11-07T04:06:57.737Z,100312.09
2023-11-07T04:08:03.211Z,100316.95
2023-11-07T04:09:08.955Z,100311.34
2023-11-07T04:10:14.550Z,100316.62
2023-11-07T04:11:20.039Z,100309
2023-11-07T04:12:25.540Z,100316.11
2023-11-07T04:13:31.074Z,100315.63
2023-11-07T04:14:36.681Z,100309.41
2023-11-07T04:15:42.293Z,100314.43
2023-11-07T04:16:47.866Z,100316.77
2023-11-07T04:17:53.653Z,100322.56
2023-11-07T04:18:59.549Z,100315.28
2023-11-07T04:20:05.284Z,100318.78
2023-11-07T04:21:10.895Z,100312.95
2023-11-07T04:22:16.434Z,100318.63
2023-11-07T04:23:21.931Z,100316.37
2023-11-07T04:24:27.419Z,100318.71
2023-11-07T04:25:32.907Z,100313.17
2023-11-07T04:26:38.467Z,100315.03
2023-11-07T04:27:43.993Z,100322.2
2023-11-07T04:28:49.751Z,100315.44
2023-11-07T04:29:55.553Z,100326.48
2023-11-07T04:31:01.161Z,100327.34
2023-11-07T04:32:06.667Z,100330.69
2023-11-07T04:33:12.377Z,100328.76
2023-11-07T04:34:18.097Z,100327.49
2023-11-07T04:35:23.717Z,100326.23
2023-11-07T04:36:29.196Z,100318.72
2023-11-07T04:37:34.719Z,100331.59
2023-11-07T04:38:40.260Z,100324.07
2023-11-07T04:39:45.754Z,100330.25
2023-11-07T04:40:51.244Z,100328.16
2023-11-07T04:41:56.833Z,100323.73
2023-11-07T04:43:02.422Z,100320.98
2023-11-07T04:44:08.005Z,100328.09
2023-11-07T04:45:13.698Z,100323.06
2023-11-07T04:46:19.209Z,100327.42
2023-11-07T04:47:24.717Z,100323.81
2023-11-07T04:48:30.630Z,100323.22
2023-11-07T04:49:37.080Z,100327.42
2023-11-07T04:50:42.871Z,100325.08
2023-11-07T04:51:48.423Z,100329.09
2023-11-07T04:52:53.965Z,100333.45
2023-11-07T04:53:59.506Z,100330.7
2023-11-07T04:55:05.078Z,100328.58
2023-11-07T04:56:10.696Z,100337.88
2023-11-07T04:57:16.285Z,100334.38
2023-11-07T04:58:21.799Z,100329.59
2023-11-07T04:59:29.579Z,100332.7
2023-11-07T05:00:35.364Z,100335.27
2023-11-07T05:01:40.833Z,100328.67
2023-11-07T05:02:46.564Z,100339.86
2023-11-07T05:03:52.698Z,100330.08
2023-11-07T05:04:59.001Z,100341.38
2023-11-07T05:06:04.600Z,100344.14
2023-11-07T05:07:10.259Z,100343.41
2023-11-07T05:08:15.772Z,100332.26
2023-11-07T05:09:21.310Z,100336.95
2023-11-07T05:10:27.019Z,100335.61
2023-11-07T05:11:32.502Z,100335.53
2023-11-07T05:12:38.014Z,100340.9
2023-11-07T05:13:43.526Z,100329.94
2023-11-07T05:14:49.083Z,100330.6
2023-11-07T05:15:56.912Z,100328.27
2023-11-07T05:17:02.398Z,100339.31
2023-11-07T05:18:08.221Z,100338.93
2023-11-07T05:19:14.142Z,100343.36
2023-11-07T05:20:19.762Z,100342.28
2023-11-07T05:21:25.232Z,100340.94
2023-11-07T05:22:30.726Z,100340.87
2023-11-07T05:23:36.350Z,100340.02
2023-11-07T05:24:41.956Z,100338.94
2023-11-07T05:25:47.445Z,100337.41
2023-11-07T05:26:53.018Z,100342.28
2023-11-07T05:27:58.720Z,100346.64
2023-11-07T05:29:07.244Z,100346.45
2023-11-07T05:30:12.784Z,100350.4
2023-11-07T05:31:18.330Z,100346.3
2023-11-07T05:32:23.818Z,100348.87
2023-11-07T05:33:29.730Z,100348.72
2023-11-07T05:34:35.416Z,100350.41
2023-11-07T05:35:40.987Z,100351.66
2023-11-07T05:36:46.562Z,100356.02
2023-11-07T05:37:52.073Z,100354.91
2023-11-07T05:38:57.708Z,100351.66
2023-11-07T05:40:03.357Z,100357.92
2023-11-07T05:41:08.835Z,100355.58
2023-11-07T05:42:14.456Z,100360.38
2023-11-07T05:43:20.095Z,100361.61
2023-11-07T05:44:25.557Z,100361.72
2023-11-07T05:45:31.074Z,100368.48
2023-11-07T05:46:36.538Z,100366.3
2023-11-07T05:47:42.243Z,100366.4
2023-11-07T05:48:48.238Z,100362.87
2023-11-07T05:49:55.006Z,100376.86
2023-11-07T05:51:00.606Z,100368.97
2023-11-07T05:52:06.263Z,100371.42
2023-11-07T05:53:11.845Z,100376.85
2023-11-07T05:54:17.385Z,100379.61
2023-11-07T05:55:22.963Z,100372.23
2023-11-07T05:56:28.476Z,100371.91
2023-11-07T05:57:33.942Z,100374.77
2023-11-07T05:58:39.450Z,100378.78
2023-11-07T05:59:45.079Z,100376.66
2023-11-07T06:00:50.723Z,100379.94
2023-11-07T06:01:56.255Z,100377.36
2023-11-07T06:03:01.955Z,100381.69
2023-11-07T06:04:08.292Z,100376.25
2023-11-07T06:05:14.078Z,100383.47
2023-11-07T06:06:19.907Z,100387.82
2023-11-07T06:07:25.618Z,100381.12
2023-11-07T06:08:31.160Z,100380.86
2023-11-07T06:09:36.632Z,100388.38
2023-11-07T06:10:42.220Z,100393.33
2023-11-07T06:11:47.773Z,100395.52
2023-11-07T06:12:53.332Z,100395.59
2023-11-07T06:13:58.983Z,100386.41
2023-11-07T06:15:04.569Z,100394.33
2023-11-07T06:16:10.091Z,100400.28
2023-11-07T06:17:15.539Z,100403.03
2023-11-07T06:18:21.233Z,100402.13
2023-11-07T06:19:27.062Z,100406.23
2023-11-07T06:20:32.724Z,100398.6
2023-11-07T06:21:38.212Z,100406.3
2023-11-07T06:22:43.820Z,100410.39
2023-11-07T06:23:49.346Z,100408.64
2023-11-07T06:24:54.894Z,100411.84
2023-11-07T06:26:00.420Z,100409.72
2023-11-07T06:27:06.014Z,100410.69
2023-11-07T06:28:11.724Z,100407.19
2023-11-07T06:29:17.668Z,100413.14
2023-11-07T06:30:23.214Z,100411.13
2023-11-07T06:31:28.719Z,100417.89
2023-11-07T06:32:34.266Z,100419.31
2023-11-07T06:33:40.271Z,100421.98
2023-11-07T06:34:46.137Z,100423.39
2023-11-07T06:35:52.190Z,100420.72
2023-11-07T06:36:57.847Z,100427
2023-11-07T06:38:03.365Z,100425.84
2023-11-07T06:39:08.994Z,100430.34
2023-11-07T06:40:18.499Z,100427.19
2023-11-07T06:41:24.808Z,100424.4
2023-11-07T06:42:30.285Z,100439.05
2023-11-07T06:43:35.789Z,100430.43
2023-11-07T06:44:41.371Z,100434.38
2023-11-07T06:45:46.927Z,100435.97
2023-11-07T06:46:52.678Z,100439.06
2023-11-07T06:47:58.459Z,100435.97
2023-11-07T06:49:04.575Z,100438.73
2023-11-07T06:50:10.607Z,100433.89
2023-11-07T06:51:16.199Z,100440.06
2023-11-07T06:52:21.736Z,100445.83
2023-11-07T06:53:27.239Z,100443.16
2023-11-07T06:54:32.830Z,100442.26
2023-11-07T06:55:38.467Z,100437.39
2023-11-07T06:56:44.007Z,100450.37
2023-11-07T06:57:49.737Z,100451.19
2023-11-07T06:58:55.510Z,100447.09
2023-11-07T07:00:01.103Z,100447.95
2023-11-07T07:01:06.869Z,100451.79
2023-11-07T07:02:12.359Z,100451.38
2023-11-07T07:03:18.044Z,100451.67
2023-11-07T07:04:23.848Z,100453.55
2023-11-07T07:05:29.505Z,100445.05
2023-11-07T07:06:35.162Z,100453.98
2023-11-07T07:07:40.713Z,100453.02
2023-11-07T07:08:46.288Z,100451.79
2023-11-07T07:09:51.890Z,100455.81
2023-11-07T07:10:57.361Z,100455.81
2023-11-07T07:12:02.867Z,100460.83
2023-11-07T07:13:08.633Z,100461.16
2023-11-07T07:14:14.158Z,100462.09
2023-11-07T07:15:19.908Z,100462.17
2023-11-07T07:16:25.533Z,100461.76
2023-11-07T07:17:31.056Z,100466.7
2023-11-07T07:18:36.759Z,100462.76
2023-11-07T07:19:42.384Z,100463.34
2023-11-07T07:20:48.963Z,100461.48
2023-11-07T07:21:54.539Z,100465.09
2023-11-07T07:23:00.126Z,100466.44
2023-11-07T07:24:05.725Z,100469.11
2023-11-07T07:25:11.282Z,100468.59
2023-11-07T07:26:16.767Z,100467.36
2023-11-07T07:27:22.258Z,100466.58
2023-11-07T07:28:27.748Z,100469.78
2023-11-07T07:29:33.250Z,100468.52
2023-11-07T07:30:41.682Z,100469.85
2023-11-07T07:31:47.224Z,100468.25
2023-11-07T07:32:53.502Z,100461.66
2023-11-07T07:33:59.653Z,100467.09
2023-11-07T07:35:05.238Z,100469.28
2023-11-07T07:36:10.806Z,100469.35
2023-11-07T07:37:16.524Z,100468.94
2023-11-07T07:38:22.030Z,100468.09
2023-11-07T07:39:27.850Z,100470.84
2023-11-07T07:40:34.906Z,100471.28
2023-11-07T07:41:40.465Z,100471.77
2023-11-07T07:42:46.034Z,100475.38
2023-11-07T07:43:51.514Z,100478.53
2023-11-07T07:44:57.089Z,100474.7
2023-11-07T07:46:02.622Z,100483.55
2023-11-07T07:47:08.123Z,100479.98
2023-11-07T07:48:14.324Z,100482.2
2023-11-07T07:49:20.342Z,100480.45
2023-11-07T07:50:26.009Z,100487.56
2023-11-07T07:51:31.518Z,100485.81
2023-11-07T07:52:37.049Z,100493.51
2023-11-07T07:53:42.701Z,100494.51
2023-11-07T07:55:12.934Z,100486.33
2023-11-07T07:56:36.237Z,100489.49
2023-11-07T07:57:41.808Z,100490.42
2023-11-07T07:58:47.306Z,100486.81
2023-11-07T07:59:52.883Z,100487.66
2023-11-07T08:00:58.438Z,100495.24
2023-11-07T08:02:03.989Z,100488.81
2023-11-07T08:03:10.784Z,100482.7
2023-11-07T08:04:16.496Z,100499.36
2023-11-07T08:05:22.119Z,100496.34
2023-11-07T08:06:27.767Z,100494.42
2023-11-07T08:07:33.325Z,100495.49
2023-11-07T08:08:38.844Z,100493.14
2023-11-07T08:09:44.377Z,100494.65
2023-11-07T08:10:50.263Z,100496.73
2023-11-07T08:11:56.086Z,100492.55
2023-11-07T08:13:01.788Z,100505.83
2023-11-07T08:14:07.269Z,100493.95
2023-11-07T08:15:12.887Z,100500.89
2023-11-07T08:16:18.525Z,100496.09
2023-11-07T08:17:24.063Z,100498.53
2023-11-07T08:18:29.780Z,100497.41
2023-11-07T08:19:35.436Z,100496.17
2023-11-07T08:20:41.775Z,100495.73
2023-11-07T08:21:47.361Z,100496.42
2023-11-07T08:22:52.841Z,100493.3
2023-11-07T08:23:58.488Z,100493.89
2023-11-07T08:25:04.003Z,100500.66
2023-11-07T08:26:09.471Z,100492.39
2023-11-07T08:27:14.986Z,100490.95
2023-11-07T08:28:20.539Z,100489.52
2023-11-07T08:29:26.033Z,100504.75
2023-11-07T08:30:31.478Z,100489.11
2023-11-07T08:31:36.975Z,100497.55
2023-11-07T08:32:42.712Z,100500.8
2023-11-07T08:33:49.870Z,100498.2
2023-11-07T08:34:55.604Z,100496.59
2023-11-07T08:36:01.168Z,100490.01
2023-11-07T08:37:12.846Z,100489.08
2023-11-07T08:38:18.613Z,100496.02
2023-11-07T08:39:24.448Z,100510.63
2023-11-07T08:40:30.208Z,100498.84
2023-11-07T08:41:35.681Z,100495.99
2023-11-07T08:42:41.181Z,100497.72
2023-11-07T08:43:46.748Z,100496.38
2023-11-07T08:44:52.341Z,100492.55
2023-11-07T08:45:57.886Z,100513.84
2023-11-07T08:47:03.385Z,100499.72
2023-11-07T08:48:09.317Z,100498.2
2023-11-07T08:49:15.167Z,100496.88
2023-11-07T08:50:20.877Z,100505.45
2023-11-07T08:51:26.827Z,100505.96
2023-11-07T08:52:32.376Z,100506.38
2023-11-07T08:53:40.204Z,100501.27
2023-11-07T08:54:45.788Z,100500
2023-11-07T08:55:51.278Z,100503.02
2023-11-07T08:56:56.817Z,100499.41
2023-11-07T08:58:02.446Z,100518.05
2023-11-07T08:59:08.007Z,100504.26
2023-11-07T09:00:13.810Z,100500.66
2023-11-07T09:01:19.769Z,100513.2
2023-11-07T09:02:25.479Z,100511.26
2023-11-07T09:03:31.240Z,100513
2023-11-07T09:04:36.911Z,100509.17
2023-11-07T09:05:42.581Z,100515.44
2023-11-07T09:06:48.183Z,100517.19
2023-11-07T09:07:53.673Z,100514.93
2023-11-07T09:08:59.237Z,100530.98
2023-11-07T09:10:04.818Z,100514.93
2023-11-07T09:11:10.324Z,100503.06
2023-11-07T09:12:15.870Z,100518.26
2023-11-07T09:13:21.475Z,100513.32
2023-11-07T09:14:27.009Z,100513.97
2023-11-07T09:15:32.571Z,100511.3
2023-11-07T09:16:38.078Z,100508.63
2023-11-07T09:17:44.296Z,100517.98
2023-11-07T09:18:50.442Z,100512.16
2023-11-07T09:19:56.179Z,100523.89
2023-11-07T09:21:01.752Z,100516.03
2023-11-07T09:22:07.284Z,100507.22
2023-11-07T09:23:13.043Z,100509.08
2023-11-07T09:24:18.745Z,100511
2023-11-07T09:25:24.301Z,100511.89
2023-11-07T09:26:29.803Z,100522.52
2023-11-07T09:27:35.295Z,100519.02
2023-11-07T09:28:40.830Z,100516.69
2023-11-07T09:29:46.481Z,100515.15
2023-11-07T09:30:52.034Z,100531.2
2023-11-07T09:31:57.755Z,100528.18
2023-11-07T09:33:03.620Z,100520.05
2023-11-07T09:34:09.588Z,100519.13
2023-11-07T09:35:15.316Z,100524.82
2023-11-07T09:36:20.923Z,100520.98
2023-11-07T09:37:26.549Z,100519.58
2023-11-07T09:38:49.279Z,100516.56
2023-11-07T09:39:58.578Z,100524.65
2023-11-07T09:41:04.097Z,100518.55
2023-11-07T09:42:09.890Z,100530
2023-11-07T09:43:16.654Z,100526.67
2023-11-07T09:44:23.383Z,100527.25
2023-11-07T09:45:28.959Z,100532.81
2023-11-07T09:46:34.463Z,100524.89
2023-11-07T09:47:40.399Z,100543.16
2023-11-07T09:48:46.368Z,100526.56
2023-11-07T09:49:52.159Z,100533.33
2023-11-07T09:50:57.727Z,100542.48
2023-11-07T09:52:03.263Z,100532.02
2023-11-07T09:53:08.738Z,100541.79
2023-11-07T09:54:14.340Z,100531.78
2023-11-07T09:55:20.255Z,100532.88
2023-11-07T09:56:25.806Z,100524.52
2023-11-07T09:57:31.764Z,100537.61
2023-11-07T09:58:37.595Z,100530.52
2023-11-07T09:59:43.397Z,100523.48
2023-11-07T10:00:49.008Z,100535.28
2023-11-07T10:01:54.522Z,100539.88
2023-11-07T10:03:01.254Z,100535.86
2023-11-07T10:04:07.462Z,100531.84
2023-11-07T10:05:13.682Z,100538.53
2023-11-07T10:06:19.370Z,100530.58
2023-11-07T10:07:25.975Z,100526.98
2023-11-07T10:08:33.861Z,100533.08
2023-11-07T10:09:39.388Z,100529.89
2023-11-07T10:10:44.971Z,100536.58
2023-11-07T10:11:51.058Z,100529.48
2023-11-07T10:12:56.727Z,100530.06
2023-11-07T10:14:02.272Z,100532.23
2023-11-07T10:15:08.186Z,100532.64
2023-11-07T10:16:20.412Z,100536.75
2023-11-07T10:17:26.075Z,100525.2
2023-11-07T10:18:31.884Z,100521.77
2023-11-07T10:19:37.799Z,100525.84
2023-11-07T10:20:43.413Z,100531.02
2023-11-07T10:21:49.003Z,100514.54
2023-11-07T10:22:54.467Z,100518.48
2023-11-07T10:24:00.144Z,100526.02
2023-11-07T10:25:05.998Z,100524.68
2023-11-07T10:26:11.536Z,100520.09
2023-11-07T10:27:17.065Z,100518.34
2023-11-07T10:28:23.408Z,100530.03
2023-11-07T10:29:29.392Z,100516.32
2023-11-07T10:30:35.192Z,100520.05
2023-11-07T10:31:40.907Z,100520.53
2023-11-07T10:32:46.727Z,100523.48
2023-11-07T10:33:52.894Z,100520.67
2023-11-07T10:34:58.553Z,100523.89
2023-11-07T10:36:04.525Z,100520.3
2023-11-07T10:37:10.283Z,100509.47
2023-11-07T10:38:15.767Z,100513.75
2023-11-07T10:39:21.352Z,100520.05
2023-11-07T10:40:26.984Z,100514.87
2023-11-07T10:41:32.559Z,100515.5
2023-11-07T10:42:38.048Z,100511.11
2023-11-07T10:43:43.552Z,100506
2023-11-07T10:44:49.191Z,100507.78
2023-11-07T10:45:54.847Z,100506.79
2023-11-07T10:47:00.364Z,100510.22
2023-11-07T10:48:06.213Z,100511.73
2023-11-07T10:49:13.034Z,100494.2
2023-11-07T10:50:18.938Z,100499.04
2023-11-07T10:51:24.581Z,100505.59
2023-11-07T10:52:30.269Z,100498.73
2023-11-07T10:53:35.791Z,100506.34
2023-11-07T10:54:43.792Z,100501.92
2023-11-07T10:55:49.287Z,100501.33
2023-11-07T10:56:54.813Z,100497.19
2023-11-07T10:58:00.463Z,100499.86
2023-11-07T10:59:06.019Z,100497.77
2023-11-07T11:00:11.692Z,100494.84
2023-11-07T11:01:17.359Z,100500.64
2023-11-07T11:02:22.918Z,100488.09
2023-11-07T11:03:28.594Z,100497.97
2023-11-07T11:04:34.341Z,100495.19
2023-11-07T11:05:41.285Z,100496.62
2023-11-07T11:06:49.521Z,100498.31
2023-11-07T11:07:55.324Z,100500.88
2023-11-07T11:09:01.969Z,100495.53
2023-11-07T11:10:07.589Z,100501.73
2023-11-07T11:11:13.160Z,100495.05
2023-11-07T11:12:18.683Z,100499.47
2023-11-07T11:13:24.282Z,100497.31
2023-11-07T11:14:29.769Z,100496.39
2023-11-07T11:15:35.288Z,100502.49
2023-11-07T11:16:40.831Z,100487.23
2023-11-07T11:17:46.819Z,100495.7
2023-11-07T11:18:52.954Z,100497.03
2023-11-07T11:19:59.080Z,100494.98
2023-11-07T11:21:05.124Z,100489.62
2023-11-07T11:22:10.694Z,100494.53
2023-11-07T11:23:16.170Z,100496.8
2023-11-07T11:24:21.754Z,100497.66
2023-11-07T11:25:27.343Z,100496.87
2023-11-07T11:26:32.820Z,100495.13
2023-11-07T11:27:38.402Z,100493.38
2023-11-07T11:28:43.942Z,100492.96
2023-11-07T11:29:49.478Z,100493.3
2023-11-07T11:30:55.201Z,100494.78
2023-11-07T11:32:00.686Z,100493.85
2023-11-07T11:33:06.612Z,100490.84
2023-11-07T11:34:12.853Z,100491.35
2023-11-07T11:35:19.040Z,100489.02
2023-11-07T11:36:24.723Z,100488.16
2023-11-07T11:37:30.263Z,100488.16
2023-11-07T11:38:35.778Z,100488.34
2023-11-07T11:39:41.347Z,100489.43
2023-11-07T11:40:46.863Z,100496.19
2023-11-07T11:41:52.502Z,100491.28
2023-11-07T11:42:58.038Z,100500.12
2023-11-07T11:44:03.524Z,100492.38
2023-11-07T11:45:09.106Z,100501.8
2023-11-07T11:46:14.735Z,100494.87
2023-11-07T11:47:20.417Z,100491.05
2023-11-07T11:48:26.099Z,100492.15
2023-11-07T11:49:31.957Z,100490.64
2023-11-07T11:50:37.404Z,100493.52
2023-11-07T11:51:42.867Z,100487.5
2023-11-07T11:52:48.409Z,100494.95
2023-11-07T11:53:53.977Z,100484
2023-11-07T11:54:59.856Z,100486.29
2023-11-07T11:56:05.366Z,100494.07
2023-11-07T11:57:11.087Z,100491.22
2023-11-07T11:58:16.717Z,100475.09
2023-11-07T11:59:22.363Z,100486.89
2023-11-07T12:00:27.957Z,100490.76
2023-11-07T12:01:33.533Z,100488.84
2023-11-07T12:02:39.418Z,100486.84
2023-11-07T12:03:45.590Z,100486.43
2023-11-07T12:04:51.569Z,100490.52
2023-11-07T12:05:57.242Z,100488.69
2023-11-07T12:07:03.098Z,100488.77
2023-11-07T12:08:08.845Z,100485.67
2023-11-07T12:09:14.609Z,100491.03
2023-11-07T12:10:20.231Z,100490.17
2023-11-07T12:11:44.947Z,100493.51
2023-11-07T12:12:51.573Z,100492.09
2023-11-07T12:13:57.097Z,100485
2023-11-07T12:15:02.905Z,100492.69
2023-11-07T12:16:08.449Z,100484.8
2023-11-07T12:17:13.940Z,100491.08
2023-11-07T12:18:19.641Z,100483.88
2023-11-07T12:19:25.481Z,100485.66
2023-11-07T12:20:31.122Z,100492.75
2023-11-07T12:21:36.601Z,100498.52
2023-11-07T12:22:42.128Z,100498.93
2023-11-07T12:23:47.871Z,100497.11
2023-11-07T12:24:53.429Z,100496.7
2023-11-07T12:25:58.943Z,100497.59
2023-11-07T12:27:04.595Z,100498.03
2023-11-07T12:28:12.145Z,100495.91
2023-11-07T12:29:17.711Z,100497.7
2023-11-07T12:30:23.308Z,100491.83
2023-11-07T12:31:29.024Z,100492.69
2023-11-07T12:32:34.577Z,100490.01
2023-11-07T12:33:40.569Z,100485.99
2023-11-07T12:34:46.528Z,100497.11